sensor_id;sensor_type;location;lat;lon;timestamp;P1;durP1;ratioP1;P2;durP2;ratioP2
38853;SDS011;24606;51.992;4.198;2022-11-15T00:02:03;12.43;;;6.82;;
38853;SDS011;24606;51.992;4.198;2022-11-15T00:07:07;12.23;;;6.90;;
38853;SDS011;24606;51.992;4.198;2022-11-15T00:12:08;12.20;;;6.75;;
38853;SDS011;24606;51.992;4.198;2022-11-15T00:17:10;16.77;;;7.43;;
38853;SDS011;24606;51.992;4.198;2022-11-15T00:22:14;12.15;;;6.97;;
38853;SDS011;24606;51.992;4.198;2022-11-15T00:27:15;12.00;;;5.93;;
38853;SDS011;24606;51.992;4.198;2022-11-15T00:32:17;14.27;;;6.82;;
38853;SDS011;24606;51.992;4.198;2022-11-15T00:37:21;14.27;;;6.47;;
38853;SDS011;24606;51.992;4.198;2022-11-15T00:42:23;11.85;;;5.90;;
38853;SDS011;24606;51.992;4.198;2022-11-15T00:47:25;12.48;;;6.90;;
38853;SDS011;24606;51.992;4.198;2022-11-15T00:52:28;12.93;;;6.82;;
38853;SDS011;24606;51.992;4.198;2022-11-15T00:57:30;10.75;;;6.43;;
38853;SDS011;24606;51.992;4.198;2022-11-15T01:02:32;15.52;;;7.32;;
38853;SDS011;24606;51.992;4.198;2022-11-15T01:07:35;12.10;;;6.53;;
38853;SDS011;24606;51.992;4.198;2022-11-15T01:12:37;11.98;;;6.68;;
38853;SDS011;24606;51.992;4.198;2022-11-15T01:17:39;13.98;;;7.25;;
38853;SDS011;24606;51.992;4.198;2022-11-15T01:22:42;12.43;;;6.22;;
38853;SDS011;24606;51.992;4.198;2022-11-15T01:27:44;13.73;;;6.60;;
38853;SDS011;24606;51.992;4.198;2022-11-15T01:32:46;15.43;;;6.70;;
38853;SDS011;24606;51.992;4.198;2022-11-15T01:37:49;12.52;;;6.72;;
38853;SDS011;24606;51.992;4.198;2022-11-15T01:42:51;11.98;;;6.13;;
38853;SDS011;24606;51.992;4.198;2022-11-15T01:47:53;12.02;;;6.53;;
38853;SDS011;24606;51.992;4.198;2022-11-15T01:52:57;14.98;;;6.85;;
38853;SDS011;24606;51.992;4.198;2022-11-15T01:58:00;11.82;;;6.30;;
38853;SDS011;24606;51.992;4.198;2022-11-15T02:03:05;12.32;;;7.18;;
38853;SDS011;24606;51.992;4.198;2022-11-15T02:08:09;9.88;;;6.40;;
38853;SDS011;24606;51.992;4.198;2022-11-15T02:13:19;10.68;;;5.82;;
38853;SDS011;24606;51.992;4.198;2022-11-15T02:18:22;13.32;;;6.95;;
38853;SDS011;24606;51.992;4.198;2022-11-15T02:29:06;9.88;;;5.80;;
38853;SDS011;24606;51.992;4.198;2022-11-15T02:34:15;12.77;;;5.90;;
38853;SDS011;24606;51.992;4.198;2022-11-15T02:39:27;13.93;;;6.50;;
38853;SDS011;24606;51.992;4.198;2022-11-15T02:44:35;12.50;;;6.70;;
38853;SDS011;24606;51.992;4.198;2022-11-15T02:49:43;10.25;;;5.75;;
38853;SDS011;24606;51.992;4.198;2022-11-15T02:54:52;24.42;;;12.65;;
38853;SDS011;24606;51.992;4.198;2022-11-15T03:00:01;11.23;;;6.60;;
38853;SDS011;24606;51.992;4.198;2022-11-15T03:05:09;10.23;;;5.68;;
38853;SDS011;24606;51.992;4.198;2022-11-15T03:15:26;11.15;;;5.88;;
38853;SDS011;24606;51.992;4.198;2022-11-15T03:20:32;16.35;;;8.75;;
38853;SDS011;24606;51.992;4.198;2022-11-15T03:25:36;13.80;;;7.28;;
38853;SDS011;24606;51.992;4.198;2022-11-15T03:30:42;9.60;;;5.43;;
38853;SDS011;24606;51.992;4.198;2022-11-15T03:35:48;9.55;;;6.40;;
38853;SDS011;24606;51.992;4.198;2022-11-15T03:40:52;14.65;;;6.15;;
38853;SDS011;24606;51.992;4.198;2022-11-15T03:45:58;11.75;;;6.82;;
38853;SDS011;24606;51.992;4.198;2022-11-15T03:51:04;8.35;;;5.10;;
38853;SDS011;24606;51.992;4.198;2022-11-15T03:56:06;7.68;;;4.68;;
38853;SDS011;24606;51.992;4.198;2022-11-15T04:01:08;11.82;;;5.45;;
38853;SDS011;24606;51.992;4.198;2022-11-15T04:06:11;11.33;;;4.77;;
38853;SDS011;24606;51.992;4.198;2022-11-15T04:11:13;9.80;;;5.15;;
38853;SDS011;24606;51.992;4.198;2022-11-15T04:16:15;8.60;;;4.67;;
38853;SDS011;24606;51.992;4.198;2022-11-15T04:21:18;11.32;;;4.88;;
38853;SDS011;24606;51.992;4.198;2022-11-15T04:26:38;9.52;;;4.22;;
38853;SDS011;24606;51.992;4.198;2022-11-15T04:31:39;8.27;;;4.40;;
38853;SDS011;24606;51.992;4.198;2022-11-15T04:36:43;7.70;;;3.63;;
38853;SDS011;24606;51.992;4.198;2022-11-15T04:42:03;14.50;;;5.32;;
38853;SDS011;24606;51.992;4.198;2022-11-15T04:47:05;8.17;;;3.80;;
38853;SDS011;24606;51.992;4.198;2022-11-15T04:52:08;14.13;;;4.10;;
38853;SDS011;24606;51.992;4.198;2022-11-15T04:57:10;8.40;;;4.15;;
38853;SDS011;24606;51.992;4.198;2022-11-15T05:02:11;6.63;;;3.60;;
38853;SDS011;24606;51.992;4.198;2022-11-15T05:07:15;7.63;;;3.20;;
38853;SDS011;24606;51.992;4.198;2022-11-15T05:12:17;6.88;;;3.42;;
38853;SDS011;24606;51.992;4.198;2022-11-15T05:17:18;6.13;;;2.80;;
38853;SDS011;24606;51.992;4.198;2022-11-15T05:22:22;9.17;;;2.70;;
38853;SDS011;24606;51.992;4.198;2022-11-15T05:27:24;4.25;;;2.63;;
38853;SDS011;24606;51.992;4.198;2022-11-15T05:32:25;3.83;;;2.20;;
38853;SDS011;24606;51.992;4.198;2022-11-15T05:37:30;5.68;;;2.55;;
38853;SDS011;24606;51.992;4.198;2022-11-15T05:42:32;3.47;;;2.30;;
38853;SDS011;24606;51.992;4.198;2022-11-15T05:47:34;6.13;;;2.10;;
38853;SDS011;24606;51.992;4.198;2022-11-15T05:52:39;6.38;;;2.13;;
38853;SDS011;24606;51.992;4.198;2022-11-15T05:57:41;3.60;;;1.90;;
38853;SDS011;24606;51.992;4.198;2022-11-15T06:02:43;3.50;;;2.20;;
38853;SDS011;24606;51.992;4.198;2022-11-15T06:07:46;6.95;;;2.03;;
38853;SDS011;24606;51.992;4.198;2022-11-15T06:12:55;3.58;;;1.60;;
38853;SDS011;24606;51.992;4.198;2022-11-15T06:17:58;3.08;;;1.70;;
38853;SDS011;24606;51.992;4.198;2022-11-15T06:23:02;2.83;;;1.75;;
38853;SDS011;24606;51.992;4.198;2022-11-15T06:28:05;5.53;;;1.90;;
38853;SDS011;24606;51.992;4.198;2022-11-15T06:33:07;2.92;;;1.50;;
38853;SDS011;24606;51.992;4.198;2022-11-15T06:38:11;3.60;;;1.38;;
38853;SDS011;24606;51.992;4.198;2022-11-15T06:43:13;3.65;;;1.80;;
38853;SDS011;24606;51.992;4.198;2022-11-15T06:48:15;3.72;;;1.23;;
38853;SDS011;24606;51.992;4.198;2022-11-15T06:53:18;5.18;;;2.17;;
38853;SDS011;24606;51.992;4.198;2022-11-15T06:58:21;3.28;;;1.30;;
38853;SDS011;24606;51.992;4.198;2022-11-15T07:15:28;3.67;;;1.70;;
38853;SDS011;24606;51.992;4.198;2022-11-15T07:20:30;2.00;;;1.63;;
38853;SDS011;24606;51.992;4.198;2022-11-15T07:25:32;3.03;;;1.08;;
38853;SDS011;24606;51.992;4.198;2022-11-15T07:35:37;3.58;;;1.27;;
38853;SDS011;24606;51.992;4.198;2022-11-15T07:40:39;2.67;;;1.13;;
38853;SDS011;24606;51.992;4.198;2022-11-15T07:45:43;4.45;;;1.40;;
38853;SDS011;24606;51.992;4.198;2022-11-15T07:50:46;8.05;;;1.77;;
38853;SDS011;24606;51.992;4.198;2022-11-15T07:55:48;3.45;;;1.10;;
38853;SDS011;24606;51.992;4.198;2022-11-15T08:00:51;2.92;;;1.00;;
38853;SDS011;24606;51.992;4.198;2022-11-15T08:05:53;4.70;;;1.08;;
38853;SDS011;24606;51.992;4.198;2022-11-15T08:10:56;5.65;;;1.23;;
38853;SDS011;24606;51.992;4.198;2022-11-15T08:16:00;1.05;;;0.70;;
38853;SDS011;24606;51.992;4.198;2022-11-15T08:21:05;2.10;;;1.00;;
38853;SDS011;24606;51.992;4.198;2022-11-15T08:26:08;4.88;;;1.25;;
38853;SDS011;24606;51.992;4.198;2022-11-15T08:31:14;2.85;;;1.00;;
38853;SDS011;24606;51.992;4.198;2022-11-15T08:36:17;2.35;;;0.90;;
38853;SDS011;24606;51.992;4.198;2022-11-15T08:41:19;2.17;;;1.00;;
38853;SDS011;24606;51.992;4.198;2022-11-15T08:46:29;3.78;;;1.10;;
38853;SDS011;24606;51.992;4.198;2022-11-15T08:51:31;2.22;;;1.30;;
38853;SDS011;24606;51.992;4.198;2022-11-15T08:56:32;2.63;;;1.25;;
38853;SDS011;24606;51.992;4.198;2022-11-15T09:01:36;2.95;;;1.20;;
38853;SDS011;24606;51.992;4.198;2022-11-15T09:06:38;3.80;;;1.17;;
38853;SDS011;24606;51.992;4.198;2022-11-15T09:11:40;1.90;;;1.00;;
38853;SDS011;24606;51.992;4.198;2022-11-15T09:16:43;1.67;;;1.05;;
38853;SDS011;24606;51.992;4.198;2022-11-15T09:21:45;1.58;;;0.82;;
38853;SDS011;24606;51.992;4.198;2022-11-15T09:26:47;2.83;;;1.00;;
38853;SDS011;24606;51.992;4.198;2022-11-15T09:31:52;2.55;;;0.93;;
38853;SDS011;24606;51.992;4.198;2022-11-15T09:36:54;3.67;;;0.98;;
38853;SDS011;24606;51.992;4.198;2022-11-15T09:41:58;2.15;;;1.05;;
38853;SDS011;24606;51.992;4.198;2022-11-15T09:47:21;6.50;;;0.90;;
38853;SDS011;24606;51.992;4.198;2022-11-15T09:52:41;1.83;;;0.85;;
38853;SDS011;24606;51.992;4.198;2022-11-15T09:57:47;6.95;;;1.30;;
38853;SDS011;24606;51.992;4.198;2022-11-15T10:03:03;3.22;;;0.82;;
38853;SDS011;24606;51.992;4.198;2022-11-15T10:08:22;4.38;;;1.30;;
38853;SDS011;24606;51.992;4.198;2022-11-15T10:13:33;2.78;;;1.00;;
38853;SDS011;24606;51.992;4.198;2022-11-15T10:18:41;3.03;;;0.93;;
38853;SDS011;24606;51.992;4.198;2022-11-15T10:23:52;5.38;;;1.00;;
38853;SDS011;24606;51.992;4.198;2022-11-15T10:28:54;2.95;;;1.17;;
38853;SDS011;24606;51.992;4.198;2022-11-15T10:34:05;2.58;;;1.52;;
38853;SDS011;24606;51.992;4.198;2022-11-15T10:39:14;3.83;;;1.17;;
38853;SDS011;24606;51.992;4.198;2022-11-15T10:44:20;2.28;;;0.98;;
38853;SDS011;24606;51.992;4.198;2022-11-15T10:49:30;3.13;;;1.30;;
38853;SDS011;24606;51.992;4.198;2022-11-15T10:54:33;2.90;;;1.30;;
38853;SDS011;24606;51.992;4.198;2022-11-15T10:59:37;2.78;;;1.30;;
38853;SDS011;24606;51.992;4.198;2022-11-15T11:04:50;5.03;;;1.42;;
38853;SDS011;24606;51.992;4.198;2022-11-15T11:10:02;3.13;;;1.63;;
38853;SDS011;24606;51.992;4.198;2022-11-15T11:15:09;8.80;;;1.38;;
38853;SDS011;24606;51.992;4.198;2022-11-15T11:20:17;7.32;;;1.90;;
38853;SDS011;24606;51.992;4.198;2022-11-15T11:25:26;4.10;;;1.33;;
38853;SDS011;24606;51.992;4.198;2022-11-15T11:30:37;3.97;;;1.50;;
38853;SDS011;24606;51.992;4.198;2022-11-15T11:35:53;7.13;;;2.05;;
38853;SDS011;24606;51.992;4.198;2022-11-15T11:41:04;2.80;;;1.17;;
38853;SDS011;24606;51.992;4.198;2022-11-15T11:46:14;7.85;;;1.40;;
38853;SDS011;24606;51.992;4.198;2022-11-15T11:51:32;6.55;;;1.65;;
38853;SDS011;24606;51.992;4.198;2022-11-15T11:56:39;1.58;;;1.00;;
38853;SDS011;24606;51.992;4.198;2022-11-15T12:01:43;5.40;;;1.13;;
38853;SDS011;24606;51.992;4.198;2022-11-15T12:06:48;8.00;;;2.50;;
38853;SDS011;24606;51.992;4.198;2022-11-15T12:11:54;2.88;;;1.15;;
38853;SDS011;24606;51.992;4.198;2022-11-15T12:17:02;7.95;;;1.48;;
38853;SDS011;24606;51.992;4.198;2022-11-15T12:27:14;1.88;;;0.85;;
38853;SDS011;24606;51.992;4.198;2022-11-15T12:32:23;5.75;;;1.00;;
38853;SDS011;24606;51.992;4.198;2022-11-15T12:43:02;3.47;;;1.10;;
38853;SDS011;24606;51.992;4.198;2022-11-15T12:48:45;4.03;;;1.00;;
38853;SDS011;24606;51.992;4.198;2022-11-15T12:53:50;2.30;;;0.85;;
38853;SDS011;24606;51.992;4.198;2022-11-15T12:58:53;9.35;;;0.93;;
38853;SDS011;24606;51.992;4.198;2022-11-15T13:04:21;3.63;;;1.00;;
38853;SDS011;24606;51.992;4.198;2022-11-15T13:14:57;2.83;;;0.95;;
38853;SDS011;24606;51.992;4.198;2022-11-15T13:20:01;7.97;;;1.05;;
38853;SDS011;24606;51.992;4.198;2022-11-15T13:25:26;5.57;;;1.30;;
38853;SDS011;24606;51.992;4.198;2022-11-15T13:30:39;6.05;;;1.30;;
38853;SDS011;24606;51.992;4.198;2022-11-15T13:35:50;1.95;;;0.70;;
38853;SDS011;24606;51.992;4.198;2022-11-15T13:40:57;4.88;;;1.00;;
38853;SDS011;24606;51.992;4.198;2022-11-15T13:46:06;0.60;;;0.50;;
38853;SDS011;24606;51.992;4.198;2022-11-15T13:51:17;4.30;;;0.98;;
38853;SDS011;24606;51.992;4.198;2022-11-15T13:56:24;3.90;;;1.00;;
38853;SDS011;24606;51.992;4.198;2022-11-15T14:01:28;5.55;;;0.80;;
38853;SDS011;24606;51.992;4.198;2022-11-15T14:06:32;3.13;;;0.88;;
38853;SDS011;24606;51.992;4.198;2022-11-15T14:11:50;2.45;;;0.80;;
38853;SDS011;24606;51.992;4.198;2022-11-15T14:16:54;2.88;;;0.95;;
38853;SDS011;24606;51.992;4.198;2022-11-15T14:22:10;5.35;;;1.10;;
38853;SDS011;24606;51.992;4.198;2022-11-15T14:27:25;4.07;;;1.05;;
38853;SDS011;24606;51.992;4.198;2022-11-15T14:32:29;4.63;;;0.90;;
38853;SDS011;24606;51.992;4.198;2022-11-15T14:37:42;3.28;;;1.00;;
38853;SDS011;24606;51.992;4.198;2022-11-15T14:42:47;4.07;;;1.00;;
38853;SDS011;24606;51.992;4.198;2022-11-15T14:47:49;4.20;;;1.15;;
38853;SDS011;24606;51.992;4.198;2022-11-15T14:52:51;3.22;;;0.93;;
38853;SDS011;24606;51.992;4.198;2022-11-15T14:57:54;3.47;;;0.70;;
38853;SDS011;24606;51.992;4.198;2022-11-15T15:02:57;4.82;;;1.08;;
38853;SDS011;24606;51.992;4.198;2022-11-15T15:07:59;0.70;;;0.43;;
38853;SDS011;24606;51.992;4.198;2022-11-15T15:13:02;0.73;;;0.60;;
38853;SDS011;24606;51.992;4.198;2022-11-15T15:18:04;1.88;;;0.82;;
38853;SDS011;24606;51.992;4.198;2022-11-15T15:23:10;3.90;;;0.47;;
38853;SDS011;24606;51.992;4.198;2022-11-15T15:28:18;3.53;;;0.88;;
38853;SDS011;24606;51.992;4.198;2022-11-15T15:33:22;7.43;;;1.00;;
38853;SDS011;24606;51.992;4.198;2022-11-15T15:38:24;3.15;;;0.70;;
38853;SDS011;24606;51.992;4.198;2022-11-15T15:43:28;3.63;;;0.82;;
38853;SDS011;24606;51.992;4.198;2022-11-15T15:48:30;2.92;;;0.60;;
38853;SDS011;24606;51.992;4.198;2022-11-15T15:53:33;6.10;;;0.80;;
38853;SDS011;24606;51.992;4.198;2022-11-15T15:58:37;3.72;;;0.60;;
38853;SDS011;24606;51.992;4.198;2022-11-15T16:03:39;1.77;;;0.60;;
38853;SDS011;24606;51.992;4.198;2022-11-15T16:08:41;3.97;;;0.52;;
38853;SDS011;24606;51.992;4.198;2022-11-15T16:13:44;1.75;;;0.65;;
38853;SDS011;24606;51.992;4.198;2022-11-15T16:18:46;1.17;;;0.70;;
38853;SDS011;24606;51.992;4.198;2022-11-15T16:23:48;2.72;;;0.68;;
38853;SDS011;24606;51.992;4.198;2022-11-15T16:28:51;2.40;;;0.93;;
38853;SDS011;24606;51.992;4.198;2022-11-15T16:33:53;5.53;;;1.48;;
38853;SDS011;24606;51.992;4.198;2022-11-15T16:38:55;7.80;;;0.70;;
38853;SDS011;24606;51.992;4.198;2022-11-15T16:43:58;1.67;;;0.70;;
38853;SDS011;24606;51.992;4.198;2022-11-15T16:49:00;2.35;;;0.65;;
38853;SDS011;24606;51.992;4.198;2022-11-15T16:54:02;4.70;;;0.93;;
38853;SDS011;24606;51.992;4.198;2022-11-15T16:59:05;3.95;;;0.60;;
38853;SDS011;24606;51.992;4.198;2022-11-15T17:04:08;1.73;;;0.50;;
38853;SDS011;24606;51.992;4.198;2022-11-15T17:09:12;2.83;;;0.63;;
38853;SDS011;24606;51.992;4.198;2022-11-15T17:14:18;2.70;;;1.17;;
38853;SDS011;24606;51.992;4.198;2022-11-15T17:19:20;10.90;;;0.82;;
38853;SDS011;24606;51.992;4.198;2022-11-15T17:24:22;5.78;;;0.82;;
38853;SDS011;24606;51.992;4.198;2022-11-15T17:29:25;4.35;;;0.85;;
38853;SDS011;24606;51.992;4.198;2022-11-15T17:34:27;1.88;;;0.40;;
38853;SDS011;24606;51.992;4.198;2022-11-15T17:39:29;2.03;;;0.77;;
38853;SDS011;24606;51.992;4.198;2022-11-15T17:44:33;3.20;;;0.70;;
38853;SDS011;24606;51.992;4.198;2022-11-15T17:49:34;1.92;;;0.70;;
38853;SDS011;24606;51.992;4.198;2022-11-15T17:54:39;1.90;;;0.70;;
38853;SDS011;24606;51.992;4.198;2022-11-15T17:59:43;2.28;;;0.70;;
38853;SDS011;24606;51.992;4.198;2022-11-15T18:04:45;1.95;;;0.80;;
38853;SDS011;24606;51.992;4.198;2022-11-15T18:09:47;2.00;;;1.00;;
38853;SDS011;24606;51.992;4.198;2022-11-15T18:14:50;2.30;;;1.63;;
38853;SDS011;24606;51.992;4.198;2022-11-15T18:19:52;4.88;;;1.92;;
38853;SDS011;24606;51.992;4.198;2022-11-15T18:24:54;3.67;;;1.55;;
38853;SDS011;24606;51.992;4.198;2022-11-15T18:29:57;2.42;;;1.65;;
38853;SDS011;24606;51.992;4.198;2022-11-15T18:34:59;7.57;;;2.65;;
38853;SDS011;24606;51.992;4.198;2022-11-15T18:40:01;6.07;;;2.78;;
38853;SDS011;24606;51.992;4.198;2022-11-15T18:50:07;4.10;;;2.60;;
38853;SDS011;24606;51.992;4.198;2022-11-15T18:55:09;4.70;;;2.70;;
38853;SDS011;24606;51.992;4.198;2022-11-15T19:00:14;3.95;;;1.98;;
38853;SDS011;24606;51.992;4.198;2022-11-15T19:05:17;4.68;;;2.05;;
38853;SDS011;24606;51.992;4.198;2022-11-15T19:10:21;2.15;;;1.55;;
38853;SDS011;24606;51.992;4.198;2022-11-15T19:15:24;2.35;;;1.20;;
38853;SDS011;24606;51.992;4.198;2022-11-15T19:20:26;1.80;;;1.05;;
38853;SDS011;24606;51.992;4.198;2022-11-15T19:25:28;5.90;;;1.10;;
38853;SDS011;24606;51.992;4.198;2022-11-15T19:30:31;2.60;;;1.00;;
38853;SDS011;24606;51.992;4.198;2022-11-15T19:35:33;4.03;;;1.00;;
38853;SDS011;24606;51.992;4.198;2022-11-15T19:40:35;6.63;;;1.90;;
38853;SDS011;24606;51.992;4.198;2022-11-15T19:50:40;2.55;;;0.95;;
38853;SDS011;24606;51.992;4.198;2022-11-15T19:55:43;1.17;;;0.73;;
38853;SDS011;24606;51.992;4.198;2022-11-15T20:00:59;1.07;;;0.77;;
38853;SDS011;24606;51.992;4.198;2022-11-15T20:06:03;1.98;;;0.80;;
38853;SDS011;24606;51.992;4.198;2022-11-15T20:11:06;2.97;;;0.93;;
38853;SDS011;24606;51.992;4.198;2022-11-15T20:16:12;3.70;;;1.20;;
38853;SDS011;24606;51.992;4.198;2022-11-15T20:21:16;3.95;;;0.93;;
38853;SDS011;24606;51.992;4.198;2022-11-15T20:26:18;2.20;;;1.00;;
38853;SDS011;24606;51.992;4.198;2022-11-15T20:31:22;3.50;;;1.70;;
38853;SDS011;24606;51.992;4.198;2022-11-15T20:36:24;3.63;;;1.10;;
38853;SDS011;24606;51.992;4.198;2022-11-15T20:41:26;4.05;;;1.02;;
38853;SDS011;24606;51.992;4.198;2022-11-15T20:46:29;3.00;;;1.42;;
38853;SDS011;24606;51.992;4.198;2022-11-15T20:51:31;6.28;;;1.23;;
38853;SDS011;24606;51.992;4.198;2022-11-15T20:56:33;6.45;;;1.35;;
38853;SDS011;24606;51.992;4.198;2022-11-15T21:01:36;3.05;;;1.70;;
38853;SDS011;24606;51.992;4.198;2022-11-15T21:06:38;3.65;;;1.33;;
38853;SDS011;24606;51.992;4.198;2022-11-15T21:11:40;2.97;;;1.15;;
38853;SDS011;24606;51.992;4.198;2022-11-15T21:17:02;3.42;;;1.35;;
38853;SDS011;24606;51.992;4.198;2022-11-15T21:22:04;3.60;;;1.20;;
38853;SDS011;24606;51.992;4.198;2022-11-15T21:27:08;6.35;;;1.70;;
38853;SDS011;24606;51.992;4.198;2022-11-15T21:32:11;3.20;;;1.20;;
38853;SDS011;24606;51.992;4.198;2022-11-15T21:37:13;3.45;;;1.45;;
38853;SDS011;24606;51.992;4.198;2022-11-15T21:42:15;7.43;;;1.95;;
38853;SDS011;24606;51.992;4.198;2022-11-15T21:47:18;2.88;;;1.42;;
38853;SDS011;24606;51.992;4.198;2022-11-15T21:52:20;6.90;;;1.42;;
38853;SDS011;24606;51.992;4.198;2022-11-15T21:57:22;5.45;;;1.52;;
38853;SDS011;24606;51.992;4.198;2022-11-15T22:02:25;4.53;;;1.50;;
38853;SDS011;24606;51.992;4.198;2022-11-15T22:07:27;5.47;;;2.10;;
38853;SDS011;24606;51.992;4.198;2022-11-15T22:12:29;3.28;;;1.00;;
38853;SDS011;24606;51.992;4.198;2022-11-15T22:17:33;2.38;;;1.15;;
38853;SDS011;24606;51.992;4.198;2022-11-15T22:22:52;5.82;;;1.30;;
38853;SDS011;24606;51.992;4.198;2022-11-15T22:27:54;2.22;;;1.02;;
38853;SDS011;24606;51.992;4.198;2022-11-15T22:32:57;4.15;;;1.65;;
38853;SDS011;24606;51.992;4.198;2022-11-15T22:37:59;5.20;;;2.08;;
38853;SDS011;24606;51.992;4.198;2022-11-15T22:43:01;4.10;;;1.70;;
38853;SDS011;24606;51.992;4.198;2022-11-15T22:48:05;4.13;;;1.58;;
38853;SDS011;24606;51.992;4.198;2022-11-15T22:53:07;4.40;;;1.42;;
38853;SDS011;24606;51.992;4.198;2022-11-15T22:58:09;3.70;;;1.52;;
38853;SDS011;24606;51.992;4.198;2022-11-15T23:03:12;4.28;;;2.13;;
38853;SDS011;24606;51.992;4.198;2022-11-15T23:08:14;3.65;;;1.25;;
38853;SDS011;24606;51.992;4.198;2022-11-15T23:13:18;4.60;;;1.52;;
38853;SDS011;24606;51.992;4.198;2022-11-15T23:18:21;2.78;;;1.80;;
38853;SDS011;24606;51.992;4.198;2022-11-15T23:23:23;2.35;;;1.55;;
38853;SDS011;24606;51.992;4.198;2022-11-15T23:28:25;5.20;;;1.65;;
38853;SDS011;24606;51.992;4.198;2022-11-15T23:33:28;4.30;;;1.48;;
38853;SDS011;24606;51.992;4.198;2022-11-15T23:38:47;1.77;;;1.20;;
38853;SDS011;24606;51.992;4.198;2022-11-15T23:43:50;2.15;;;1.25;;
38853;SDS011;24606;51.992;4.198;2022-11-15T23:53:55;4.35;;;1.52;;
38853;SDS011;24606;51.992;4.198;2022-11-15T23:58:57;3.17;;;1.58;;
